Time;durP1;ratioP1;P1;durP2;ratioP2;P2;SDS_P1;SDS_P2;PMS_P1;PMS_P2;Temp;Humidity;BMP_temperature;BMP_pressure;BME280_temperature;BME280_humidity;BME280_pressure;Samples;Min_cycle;Max_cycle;Signal;HPM_P1;HPM_P2
2021/09/07 00:00:23;;;;;;;2.97;1.63;;;29.90;43.70;;;;;;5030343;28;20494;-42
2021/09/07 00:02:50;;;;;;;2.15;0.73;;;29.90;43.80;;;;;;5028910;28;20806;-42
2021/09/07 00:05:18;;;;;;;1.20;1.20;;;29.90;43.80;;;;;;5032602;28;20033;-40
2021/09/07 00:07:45;;;;;;;1.63;1.50;;;29.90;43.80;;;;;;5045005;28;20116;-40
2021/09/07 00:10:15;;;;;;;1.40;1.30;;;29.90;43.80;;;;;;5046955;28;20539;-42
2021/09/07 00:12:46;;;;;;;1.30;1.23;;;29.90;43.90;;;;;;5027699;28;20037;-46
2021/09/07 00:15:16;;;;;;;1.75;1.67;;;29.90;43.90;;;;;;5027096;28;20064;-40
2021/09/07 00:17:43;;;;;;;2.45;1.35;;;29.90;43.90;;;;;;5030443;28;20052;-41
2021/09/07 00:20:12;;;;;;;1.98;1.40;;;29.80;43.90;;;;;;5030422;28;20037;-40
2021/09/07 00:22:39;;;;;;;0.73;0.73;;;29.80;43.90;;;;;;5030647;28;20045;-45
2021/09/07 00:25:07;;;;;;;1.13;0.82;;;29.80;43.90;;;;;;5029534;28;20083;-42
2021/09/07 00:27:36;;;;;;;1.25;1.10;;;29.80;43.90;;;;;;5029404;28;20049;-41
2021/09/07 00:30:04;;;;;;;1.63;1.52;;;29.80;43.90;;;;;;5029932;28;20459;-43
2021/09/07 00:32:31;;;;;;;1.80;1.33;;;29.80;43.90;;;;;;5030263;28;20111;-41
2021/09/07 00:34:58;;;;;;;1.55;1.48;;;29.80;44.00;;;;;;5030188;28;20738;-42
2021/09/07 00:37:25;;;;;;;2.00;1.05;;;29.70;43.90;;;;;;5047040;28;20055;-43
2021/09/07 00:39:52;;;;;;;0.90;0.90;;;29.80;44.00;;;;;;5027593;28;20804;-43
2021/09/07 00:42:19;;;;;;;1.33;1.20;;;29.80;44.00;;;;;;5030576;28;20128;-42
2021/09/07 00:44:48;;;;;;;1.27;1.17;;;29.80;44.00;;;;;;5029854;28;20045;-43
2021/09/07 00:47:15;;;;;;;1.45;1.45;;;29.70;44.00;;;;;;5030392;28;20409;-45
2021/09/07 00:49:42;;;;;;;1.55;1.45;;;29.70;44.00;;;;;;5030396;28;20116;-42
2021/09/07 00:52:09;;;;;;;0.73;0.70;;;29.70;44.00;;;;;;5029383;28;20072;-40
2021/09/07 00:54:38;;;;;;;0.95;0.95;;;29.70;44.00;;;;;;5030667;28;20046;-41
2021/09/07 00:57:07;;;;;;;1.63;1.25;;;29.70;44.00;;;;;;5034168;28;20077;-46
2021/09/07 00:59:35;;;;;;;1.98;1.88;;;29.70;44.00;;;;;;5033453;28;20045;-46
2021/09/07 01:02:05;;;;;;;1.35;1.08;;;29.70;44.00;;;;;;5042104;28;20049;-42
2021/09/07 01:04:34;;;;;;;1.85;0.93;;;29.60;44.00;;;;;;5033906;28;20584;-46
2021/09/07 01:07:02;;;;;;;1.27;1.23;;;29.60;44.00;;;;;;5031627;28;20049;-44
2021/09/07 01:09:30;;;;;;;1.17;0.93;;;29.60;44.00;;;;;;5045574;28;20041;-45
2021/09/07 01:11:58;;;;;;;1.45;1.35;;;29.60;44.00;;;;;;5035408;28;20050;-44
2021/09/07 01:14:30;;;;;;;0.60;0.60;;;29.60;44.10;;;;;;5033322;28;20072;-41
2021/09/07 01:16:59;;;;;;;2.00;1.67;;;29.60;44.10;;;;;;5033666;28;20072;-43
2021/09/07 01:19:29;;;;;;;0.88;0.88;;;29.60;44.10;;;;;;5033697;28;20094;-40
2021/09/07 01:21:58;;;;;;;0.70;0.70;;;29.60;44.10;;;;;;5031266;28;20096;-43
2021/09/07 01:24:28;;;;;;;1.17;1.10;;;29.60;44.10;;;;;;5033194;28;20069;-43
2021/09/07 01:26:56;;;;;;;0.93;0.73;;;29.60;44.10;;;;;;5040393;28;20364;-41
2021/09/07 01:29:24;;;;;;;1.58;1.48;;;29.60;44.10;;;;;;5039364;28;20100;-43
2021/09/07 01:31:53;;;;;;;1.40;1.15;;;29.60;44.10;;;;;;5033394;28;20045;-42
2021/09/07 01:34:21;;;;;;;1.20;1.10;;;29.50;44.10;;;;;;5033489;28;20040;-46
2021/09/07 01:36:48;;;;;;;1.55;1.45;;;29.50;44.10;;;;;;5030563;28;20449;-45
2021/09/07 01:39:15;;;;;;;1.45;1.35;;;29.50;44.10;;;;;;5033732;28;20045;-45
2021/09/07 01:41:44;;;;;;;1.35;1.17;;;29.50;44.10;;;;;;5030855;28;20069;-47
2021/09/07 01:44:11;;;;;;;0.75;0.73;;;29.50;44.10;;;;;;5032777;28;20056;-45
2021/09/07 01:46:38;;;;;;;1.02;1.00;;;29.50;44.10;;;;;;5033291;28;20132;-44
2021/09/07 01:49:09;;;;;;;0.98;0.98;;;29.50;44.10;;;;;;5045624;28;20069;-41
2021/09/07 01:51:36;;;;;;;0.93;0.93;;;29.50;44.20;;;;;;5031378;28;20124;-42
2021/09/07 01:54:04;;;;;;;0.75;0.60;;;29.50;44.20;;;;;;5033118;28;20048;-40
2021/09/07 01:56:32;;;;;;;1.58;1.25;;;29.50;44.20;;;;;;5038248;28;20056;-41
2021/09/07 01:59:01;;;;;;;1.35;1.15;;;29.50;44.70;;;;;;5032531;28;20040;-42
2021/09/07 02:01:29;;;;;;;1.83;1.10;;;29.50;44.30;;;;;;5032996;28;20071;-42
2021/09/07 02:03:57;;;;;;;1.30;1.20;;;29.40;44.10;;;;;;5030512;28;20033;-41
2021/09/07 02:06:25;;;;;;;1.02;1.00;;;29.40;44.10;;;;;;5031590;28;20124;-44
2021/09/07 02:08:53;;;;;;;0.80;0.73;;;29.40;44.20;;;;;;5032840;28;20383;-43
2021/09/07 02:11:20;;;;;;;3.42;0.90;;;29.40;44.20;;;;;;5032283;28;20046;-41
2021/09/07 02:13:47;;;;;;;1.27;1.25;;;29.40;44.10;;;;;;5032874;28;20052;-44
2021/09/07 02:16:17;;;;;;;1.15;0.75;;;29.40;44.20;;;;;;5032689;28;20048;-41
2021/09/07 02:18:44;;;;;;;1.50;1.27;;;29.40;44.20;;;;;;5030447;28;20049;-42
2021/09/07 02:21:11;;;;;;;1.35;0.77;;;29.40;44.20;;;;;;5029186;28;20048;-46
2021/09/07 02:23:38;;;;;;;1.05;1.02;;;29.40;44.20;;;;;;5032609;28;20041;-46
2021/09/07 02:26:06;;;;;;;0.70;0.70;;;29.40;44.20;;;;;;5032577;28;20075;-45
2021/09/07 02:28:33;;;;;;;1.00;1.00;;;29.40;44.20;;;;;;5032411;28;20044;-41
2021/09/07 02:31:02;;;;;;;0.82;0.82;;;29.40;44.20;;;;;;5030469;28;20490;-40
2021/09/07 02:33:31;;;;;;;1.40;0.55;;;29.40;44.20;;;;;;5031384;28;20095;-47
2021/09/07 02:36:01;;;;;;;0.95;0.82;;;29.40;44.20;;;;;;5031521;28;20050;-43
2021/09/07 02:38:33;;;;;;;1.20;1.15;;;29.40;44.20;;;;;;5030592;28;20484;-45
2021/09/07 02:41:00;;;;;;;0.90;0.88;;;29.30;44.20;;;;;;5031565;28;20414;-41
2021/09/07 02:43:29;;;;;;;0.80;0.80;;;29.30;44.20;;;;;;5050969;28;20063;-42
2021/09/07 02:45:57;;;;;;;1.13;1.13;;;29.30;44.20;;;;;;5031896;28;20132;-41
2021/09/07 02:48:26;;;;;;;1.00;1.00;;;29.30;44.20;;;;;;5033998;28;20417;-42
2021/09/07 02:50:55;;;;;;;1.20;1.20;;;29.30;44.20;;;;;;5030880;28;20506;-42
2021/09/07 02:53:23;;;;;;;0.98;0.98;;;29.30;44.20;;;;;;5032029;28;20048;-41
2021/09/07 02:55:51;;;;;;;0.70;0.70;;;29.20;44.10;;;;;;5031886;28;20148;-41
2021/09/07 02:58:19;;;;;;;1.15;1.15;;;29.20;44.10;;;;;;5028016;28;20482;-43
2021/09/07 03:00:46;;;;;;;1.00;1.00;;;29.20;44.10;;;;;;5032720;28;20046;-42
2021/09/07 03:03:14;;;;;;;0.82;0.82;;;29.20;44.10;;;;;;5032440;28;20533;-41
2021/09/07 03:05:41;;;;;;;1.27;1.20;;;29.20;44.20;;;;;;5031632;28;20081;-41
2021/09/07 03:08:09;;;;;;;1.15;0.90;;;29.20;44.20;;;;;;5031536;28;20049;-41
2021/09/07 03:10:37;;;;;;;1.27;1.27;;;29.20;44.20;;;;;;5043467;28;20048;-42
2021/09/07 03:13:06;;;;;;;1.35;1.25;;;29.20;44.20;;;;;;5031407;28;20141;-44
2021/09/07 03:15:33;;;;;;;0.75;0.75;;;29.20;44.20;;;;;;5030035;28;20080;-42
2021/09/07 03:18:01;;;;;;;4.43;1.00;;;29.20;44.20;;;;;;5030420;28;20057;-43
2021/09/07 03:20:30;;;;;;;1.08;1.02;;;29.20;44.20;;;;;;5031556;28;20041;-48
2021/09/07 03:22:57;;;;;;;1.48;0.73;;;29.10;44.10;;;;;;5031447;28;20045;-44
2021/09/07 03:25:26;;;;;;;1.13;1.02;;;29.10;44.20;;;;;;5031130;28;20199;-44
2021/09/07 03:27:53;;;;;;;0.98;0.98;;;29.10;44.20;;;;;;5028729;28;20053;-44
2021/09/07 03:30:22;;;;;;;1.88;1.38;;;29.10;44.20;;;;;;5031534;28;20568;-43
2021/09/07 03:32:49;;;;;;;1.15;0.88;;;29.10;44.20;;;;;;5031474;28;20163;-41
2021/09/07 03:35:18;;;;;;;1.52;1.27;;;29.20;44.30;;;;;;5030992;28;20048;-44
2021/09/07 03:37:48;;;;;;;1.30;1.20;;;29.10;44.20;;;;;;5031834;28;20037;-44
2021/09/07 03:40:17;;;;;;;0.93;0.93;;;29.10;44.20;;;;;;5026783;28;20414;-46
2021/09/07 03:42:46;;;;;;;1.38;1.27;;;29.10;44.20;;;;;;5028973;28;20401;-45
2021/09/07 03:45:15;;;;;;;1.45;1.35;;;29.10;44.20;;;;;;5028048;28;20057;-49
2021/09/07 03:47:43;;;;;;;1.20;1.15;;;29.10;44.20;;;;;;5031328;28;20525;-44
2021/09/07 03:50:13;;;;;;;1.48;1.38;;;29.10;44.30;;;;;;5031906;28;20692;-49
2021/09/07 03:52:42;;;;;;;1.25;1.15;;;29.10;44.30;;;;;;5031243;28;20033;-43
2021/09/07 03:55:13;;;;;;;0.77;0.77;;;29.10;44.30;;;;;;5028785;28;20419;-41
2021/09/07 03:57:40;;;;;;;0.73;0.73;;;29.00;44.20;;;;;;5028982;28;20061;-41
2021/09/07 04:00:12;;;;;;;0.88;0.88;;;29.00;44.20;;;;;;5030782;28;20096;-43
2021/09/07 04:02:41;;;;;;;1.92;1.42;;;29.00;44.20;;;;;;5031018;28;20051;-44
2021/09/07 04:05:10;;;;;;;0.80;0.73;;;29.00;44.30;;;;;;5030932;28;20045;-42
2021/09/07 04:07:39;;;;;;;1.42;1.33;;;29.00;44.30;;;;;;5030407;28;20660;-42
2021/09/07 04:10:07;;;;;;;1.13;1.02;;;29.00;44.30;;;;;;5029554;28;20152;-47
2021/09/07 04:12:36;;;;;;;1.33;1.25;;;29.00;44.30;;;;;;5029298;28;20041;-44
2021/09/07 04:15:05;;;;;;;3.25;0.98;;;29.00;44.30;;;;;;5030690;28;20116;-46
2021/09/07 04:17:34;;;;;;;0.93;0.93;;;29.00;44.30;;;;;;5030451;28;20042;-42
2021/09/07 04:20:01;;;;;;;1.25;1.15;;;29.00;44.30;;;;;;5031130;28;20125;-40
2021/09/07 04:22:29;;;;;;;0.88;0.75;;;29.00;44.30;;;;;;5044443;28;20045;-43
2021/09/07 04:24:56;;;;;;;1.67;1.58;;;29.00;44.40;;;;;;5033175;28;20071;-45
2021/09/07 04:27:23;;;;;;;1.13;1.13;;;29.00;44.30;;;;;;5029610;28;20045;-42
2021/09/07 04:29:50;;;;;;;0.98;0.98;;;28.90;44.30;;;;;;5033942;28;20092;-42
2021/09/07 04:32:17;;;;;;;0.88;0.88;;;29.00;44.40;;;;;;5034447;28;20056;-44
2021/09/07 04:34:45;;;;;;;1.23;0.82;;;28.90;44.30;;;;;;5034026;28;20497;-44
2021/09/07 04:37:12;;;;;;;1.52;1.23;;;28.90;44.30;;;;;;5033374;28;20116;-42
2021/09/07 04:39:39;;;;;;;1.25;1.10;;;28.90;44.30;;;;;;5032286;28;20053;-41
2021/09/07 04:42:06;;;;;;;1.27;0.80;;;28.90;44.40;;;;;;5041174;28;20100;-41
2021/09/07 04:44:35;;;;;;;1.42;1.25;;;28.90;44.40;;;;;;5034200;28;20034;-43
2021/09/07 04:47:04;;;;;;;1.17;1.08;;;28.90;45.00;;;;;;5043176;28;20424;-43
2021/09/07 04:49:31;;;;;;;1.48;1.42;;;28.90;44.40;;;;;;5048035;28;20132;-43
2021/09/07 04:52:00;;;;;;;0.95;0.95;;;28.90;44.40;;;;;;5031238;28;20654;-43
2021/09/07 04:54:27;;;;;;;0.82;0.82;;;28.80;44.30;;;;;;5031863;28;20410;-43
2021/09/07 04:56:54;;;;;;;1.13;1.13;;;28.80;44.40;;;;;;5030615;28;20049;-47
2021/09/07 04:59:21;;;;;;;0.95;0.95;;;28.80;44.40;;;;;;5033624;28;20124;-42
2021/09/07 05:01:48;;;;;;;1.30;1.20;;;28.80;44.40;;;;;;5034070;28;20033;-40
2021/09/07 05:04:15;;;;;;;1.40;1.27;;;28.80;44.50;;;;;;5030028;28;20498;-41
2021/09/07 05:06:42;;;;;;;1.30;0.80;;;28.80;45.10;;;;;;5041948;28;20045;-41
2021/09/07 05:09:11;;;;;;;0.85;0.85;;;28.80;44.50;;;;;;5034521;28;20033;-43
2021/09/07 05:11:38;;;;;;;0.98;0.98;;;28.80;44.50;;;;;;5032183;28;20123;-42
2021/09/07 05:14:06;;;;;;;1.00;1.00;;;28.80;44.50;;;;;;5033836;28;20502;-41
2021/09/07 05:16:33;;;;;;;1.13;1.13;;;28.80;44.50;;;;;;5033659;28;20509;-46
2021/09/07 05:19:00;;;;;;;0.98;0.98;;;28.80;44.50;;;;;;5031751;28;20082;-42
2021/09/07 05:21:29;;;;;;;0.82;0.82;;;28.80;44.50;;;;;;5035235;28;20521;-41
2021/09/07 05:23:56;;;;;;;2.58;1.20;;;28.70;44.50;;;;;;5033381;28;20045;-46
2021/09/07 05:26:24;;;;;;;1.25;1.15;;;28.70;44.50;;;;;;5033946;28;20068;-41
2021/09/07 05:28:51;;;;;;;1.35;1.25;;;28.80;44.60;;;;;;5033354;28;20033;-44
2021/09/07 05:31:18;;;;;;;1.65;1.55;;;28.70;44.50;;;;;;5033545;28;20041;-44
2021/09/07 05:33:45;;;;;;;2.25;1.50;;;28.70;45.10;;;;;;5042385;28;20148;-43
2021/09/07 05:36:12;;;;;;;0.93;0.93;;;28.70;44.60;;;;;;5033722;28;20579;-42
2021/09/07 05:38:39;;;;;;;1.52;0.82;;;28.80;44.60;;;;;;5033185;28;20138;-42
2021/09/07 05:41:06;;;;;;;4.47;1.00;;;28.70;44.60;;;;;;5032292;28;20041;-44
2021/09/07 05:43:35;;;;;;;1.27;1.27;;;28.70;44.60;;;;;;5033502;28;20041;-41
2021/09/07 05:46:02;;;;;;;1.77;1.20;;;28.70;44.60;;;;;;5029533;28;20531;-42
2021/09/07 05:48:29;;;;;;;1.38;1.30;;;28.70;44.60;;;;;;5035147;28;20096;-42
2021/09/07 05:50:56;;;;;;;1.15;1.10;;;28.70;44.60;;;;;;5032711;28;20059;-43
2021/09/07 05:53:23;;;;;;;1.08;1.08;;;28.70;44.60;;;;;;5033487;28;20129;-40
2021/09/07 05:55:50;;;;;;;1.00;1.00;;;28.70;44.60;;;;;;5033351;28;20054;-47
2021/09/07 05:58:17;;;;;;;2.22;1.15;;;28.70;44.60;;;;;;5032770;28;20123;-42
2021/09/07 06:00:45;;;;;;;1.88;1.33;;;28.70;44.60;;;;;;5046194;28;20041;-42
2021/09/07 06:03:12;;;;;;;3.10;1.73;;;28.70;44.60;;;;;;5034005;28;20034;-44
2021/09/07 06:05:39;;;;;;;1.27;1.08;;;28.70;44.60;;;;;;5033510;28;20037;-43
2021/09/07 06:08:06;;;;;;;2.53;1.52;;;28.70;44.60;;;;;;5032933;28;20037;-43
2021/09/07 06:10:34;;;;;;;2.80;1.30;;;28.70;44.70;;;;;;5032866;28;20497;-42
2021/09/07 06:13:01;;;;;;;4.13;2.55;;;28.70;44.70;;;;;;5031370;28;20033;-41
2021/09/07 06:15:28;;;;;;;1.30;1.17;;;28.70;44.80;;;;;;5030090;28;20068;-44
2021/09/07 06:17:56;;;;;;;2.25;1.70;;;28.70;44.80;;;;;;5028237;28;20510;-47
2021/09/07 06:20:23;;;;;;;2.85;2.00;;;28.70;44.80;;;;;;5032693;28;20128;-41
2021/09/07 06:22:52;;;;;;;2.50;2.38;;;28.70;44.90;;;;;;5033109;28;20069;-42
2021/09/07 06:25:19;;;;;;;2.15;1.63;;;28.70;44.90;;;;;;5032743;28;20041;-43
2021/09/07 06:27:46;;;;;;;1.48;1.13;;;28.70;44.90;;;;;;5030838;28;20060;-40
2021/09/07 06:30:13;;;;;;;1.77;1.60;;;28.70;44.90;;;;;;5042499;28;20041;-43
2021/09/07 06:32:40;;;;;;;3.33;2.17;;;28.70;44.90;;;;;;5035079;28;20149;-48
2021/09/07 06:35:10;;;;;;;1.02;1.02;;;28.70;44.90;;;;;;5032189;28;20033;-45
2021/09/07 06:37:37;;;;;;;1.80;1.10;;;28.80;44.90;;;;;;5037750;28;20071;-42
2021/09/07 06:40:06;;;;;;;1.65;1.48;;;28.80;45.00;;;;;;5048042;28;20147;-45
2021/09/07 06:42:33;;;;;;;3.17;1.60;;;28.80;45.00;;;;;;5031107;28;20569;-44
2021/09/07 06:45:00;;;;;;;2.42;1.73;;;28.80;44.90;;;;;;5032531;28;20037;-46
2021/09/07 06:47:27;;;;;;;2.85;2.00;;;28.80;44.90;;;;;;5032122;28;20041;-41
2021/09/07 06:49:54;;;;;;;1.88;1.42;;;28.80;44.90;;;;;;5029177;28;20045;-47
2021/09/07 06:52:23;;;;;;;1.13;1.13;;;28.80;44.90;;;;;;5030921;28;20132;-41
2021/09/07 06:54:50;;;;;;;3.22;1.60;;;28.80;44.90;;;;;;5028618;28;20045;-45
2021/09/07 06:57:17;;;;;;;2.90;1.95;;;28.80;44.90;;;;;;5032685;28;20074;-49
2021/09/07 06:59:44;;;;;;;1.83;1.73;;;28.90;44.90;;;;;;5031532;28;20042;-41
2021/09/07 07:02:11;;;;;;;2.80;2.35;;;28.90;44.90;;;;;;5032498;28;20056;-44
2021/09/07 07:04:38;;;;;;;2.08;1.60;;;28.90;44.80;;;;;;5044668;28;20125;-45
2021/09/07 07:07:05;;;;;;;2.25;2.05;;;28.90;44.80;;;;;;5044039;28;20080;-43
2021/09/07 07:09:34;;;;;;;3.08;2.10;;;28.90;44.80;;;;;;5030570;28;20045;-45
2021/09/07 07:12:01;;;;;;;2.40;2.17;;;29.00;44.90;;;;;;5031996;28;20525;-43
2021/09/07 07:14:28;;;;;;;1.75;1.40;;;29.00;44.80;;;;;;5033782;28;20052;-44
2021/09/07 07:16:55;;;;;;;4.10;2.35;;;29.00;44.80;;;;;;5031006;28;20144;-44
2021/09/07 07:19:22;;;;;;;1.65;1.52;;;29.00;44.80;;;;;;5031115;28;20563;-46
2021/09/07 07:21:49;;;;;;;2.67;1.83;;;29.00;44.80;;;;;;5028804;28;20690;-46
2021/09/07 07:24:17;;;;;;;2.42;2.22;;;29.00;44.80;;;;;;5031882;28;20122;-42
2021/09/07 07:26:46;;;;;;;3.33;2.60;;;29.00;44.70;;;;;;5032012;28;20414;-44
2021/09/07 07:29:15;;;;;;;2.85;2.65;;;29.10;44.70;;;;;;5031058;28;20064;-46
2021/09/07 07:31:43;;;;;;;2.88;2.70;;;29.10;44.70;;;;;;5035708;28;20048;-46
2021/09/07 07:34:10;;;;;;;2.58;2.40;;;29.10;44.70;;;;;;5029972;28;20128;-45
2021/09/07 07:36:37;;;;;;;3.75;1.98;;;29.10;44.70;;;;;;5029448;28;20583;-48
2021/09/07 07:39:05;;;;;;;4.15;2.28;;;29.10;44.70;;;;;;5038089;28;20807;-44
2021/09/07 07:41:32;;;;;;;3.33;3.03;;;29.10;44.60;;;;;;5036413;28;20053;-43
2021/09/07 07:44:00;;;;;;;4.07;2.55;;;29.10;44.60;;;;;;5030933;28;20112;-49
2021/09/07 07:46:27;;;;;;;3.67;2.65;;;29.10;44.60;;;;;;5030456;28;20037;-48
2021/09/07 07:48:55;;;;;;;3.50;1.85;;;29.10;44.60;;;;;;5027361;28;20037;-45
2021/09/07 07:51:22;;;;;;;3.30;2.47;;;29.20;44.60;;;;;;5032638;28;20131;-48
2021/09/07 07:53:49;;;;;;;5.72;2.95;;;29.10;44.50;;;;;;5030893;28;20046;-50
2021/09/07 07:56:16;;;;;;;6.90;2.78;;;29.20;44.50;;;;;;5031705;28;20041;-42
2021/09/07 07:58:43;;;;;;;4.03;2.20;;;29.20;44.50;;;;;;5030776;28;20038;-45
2021/09/07 08:01:12;;;;;;;2.70;2.33;;;29.20;44.50;;;;;;5029293;28;20041;-42
2021/09/07 08:03:40;;;;;;;3.65;2.53;;;29.20;44.40;;;;;;5028377;28;20553;-42
2021/09/07 08:06:07;;;;;;;4.65;2.20;;;29.20;44.40;;;;;;5030858;28;20122;-42
2021/09/07 08:08:34;;;;;;;3.88;2.35;;;29.20;44.40;;;;;;5030856;28;20034;-43
2021/09/07 08:11:01;;;;;;;2.40;2.20;;;29.30;44.40;;;;;;5030897;28;20061;-45
2021/09/07 08:13:29;;;;;;;2.60;1.67;;;29.30;44.40;;;;;;5031117;28;20052;-46
2021/09/07 08:15:56;;;;;;;3.78;2.10;;;29.30;44.30;;;;;;5027610;28;20055;-43
2021/09/07 08:18:24;;;;;;;2.88;1.88;;;29.30;44.30;;;;;;5030932;28;20128;-47
2021/09/07 08:20:51;;;;;;;3.38;1.67;;;29.30;44.20;;;;;;5030642;28;20076;-42
2021/09/07 08:23:18;;;;;;;2.15;1.95;;;29.30;44.20;;;;;;5030924;28;20041;-45
2021/09/07 08:25:45;;;;;;;3.17;2.72;;;29.40;44.20;;;;;;5030746;28;20049;-45
2021/09/07 08:28:12;;;;;;;4.32;2.10;;;29.40;44.10;;;;;;5030757;28;20037;-41
2021/09/07 08:30:39;;;;;;;2.50;2.30;;;29.40;44.10;;;;;;5028474;28;20052;-41
2021/09/07 08:33:13;;;;;;;4.13;2.88;;;29.40;44.00;;;;;;5034762;28;20095;-42
2021/09/07 08:35:41;;;;;;;3.95;2.05;;;29.40;44.00;;;;;;5030590;28;20053;-41
2021/09/07 08:38:08;;;;;;;3.63;2.05;;;29.40;43.90;;;;;;5030448;28;20037;-41
2021/09/07 08:40:36;;;;;;;3.00;1.50;;;29.40;43.90;;;;;;5061976;28;20037;-42
2021/09/07 08:43:04;;;;;;;2.60;1.50;;;29.40;43.80;;;;;;5028282;28;20449;-40
2021/09/07 08:45:32;;;;;;;4.72;1.52;;;29.50;43.80;;;;;;5029528;28;20449;-41
2021/09/07 08:48:00;;;;;;;1.92;1.80;;;29.50;43.80;;;;;;5030477;28;20069;-40
2021/09/07 08:50:28;;;;;;;5.03;2.55;;;29.50;43.70;;;;;;5030471;28;20466;-41
2021/09/07 08:52:58;;;;;;;1.38;1.25;;;29.50;43.70;;;;;;5030593;28;20472;-41
2021/09/07 08:55:25;;;;;;;3.08;2.05;;;29.50;43.60;;;;;;5030425;28;20108;-40
2021/09/07 08:57:53;;;;;;;2.25;1.27;;;29.50;43.60;;;;;;5027859;28;20510;-42
2021/09/07 09:00:25;;;;;;;2.45;1.67;;;29.50;43.50;;;;;;5032926;28;20077;-44
2021/09/07 09:02:53;;;;;;;2.40;2.20;;;29.50;43.50;;;;;;5032929;28;20053;-41
2021/09/07 09:05:26;;;;;;;2.97;1.88;;;29.50;43.40;;;;;;5030050;28;20597;-45
2021/09/07 09:07:54;;;;;;;4.30;1.38;;;29.50;43.30;;;;;;5031035;28;20040;-44
2021/09/07 09:10:23;;;;;;;2.20;1.30;;;29.60;43.40;;;;;;5030415;28;20132;-45
2021/09/07 09:12:50;;;;;;;0.85;0.85;;;29.50;43.30;;;;;;5027142;28;20052;-48
2021/09/07 09:15:20;;;;;;;1.85;1.63;;;29.50;43.30;;;;;;5031703;28;20042;-45
2021/09/07 09:17:49;;;;;;;1.33;1.23;;;29.60;43.20;;;;;;5034374;28;20104;-45
2021/09/07 09:20:18;;;;;;;6.22;1.38;;;29.50;43.10;;;;;;5033819;28;20114;-43
2021/09/07 09:22:50;;;;;;;1.33;1.13;;;29.60;43.20;;;;;;5032518;28;20095;-42
2021/09/07 09:25:33;;;;;;;2.03;1.50;;;29.60;43.10;;;;;;5033793;28;20064;-44
2021/09/07 09:28:21;;;;;;;1.15;1.15;;;29.60;43.00;;;;;;5030427;28;20040;-43
2021/09/07 09:30:51;;;;;;;3.70;1.52;;;29.60;43.00;;;;;;5030560;28;20041;-46
2021/09/07 09:33:19;;;;;;;1.85;1.33;;;29.60;43.50;;;;;;5034881;28;20480;-44
2021/09/07 09:35:57;;;;;;;2.47;1.10;;;29.60;42.90;;;;;;5033397;28;20072;-41
2021/09/07 09:38:26;;;;;;;1.35;1.08;;;29.60;42.90;;;;;;5033044;28;20045;-41
2021/09/07 09:41:00;;;;;;;1.80;1.40;;;29.70;42.90;;;;;;5033020;28;20034;-43
2021/09/07 09:43:36;;;;;;;2.60;1.48;;;29.70;42.80;;;;;;5033303;28;20051;-44
2021/09/07 09:46:24;;;;;;;1.92;1.40;;;29.60;42.80;;;;;;5031441;28;20134;-42
2021/09/07 09:48:53;;;;;;;1.17;1.00;;;29.70;42.70;;;;;;5044500;28;20639;-42
2021/09/07 09:51:23;;;;;;;2.35;1.00;;;29.70;42.70;;;;;;5034848;28;20052;-42
2021/09/07 09:53:51;;;;;;;1.35;1.25;;;29.70;42.70;;;;;;5033050;28;20439;-42
2021/09/07 09:56:20;;;;;;;1.48;1.17;;;29.70;42.60;;;;;;5033069;28;20038;-42
2021/09/07 09:58:47;;;;;;;1.60;1.50;;;29.70;42.60;;;;;;5033033;28;20055;-49
2021/09/07 10:01:18;;;;;;;1.27;1.20;;;29.70;42.50;;;;;;5031221;28;20535;-49
2021/09/07 10:03:46;;;;;;;0.73;0.63;;;29.70;43.00;;;;;;5046493;28;20155;-47
2021/09/07 10:06:17;;;;;;;3.10;1.30;;;29.80;42.50;;;;;;5034315;28;20033;-47
2021/09/07 10:08:44;;;;;;;2.28;1.15;;;29.80;42.50;;;;;;5032812;28;20129;-46
2021/09/07 10:11:13;;;;;;;1.90;1.58;;;29.80;42.50;;;;;;5033125;28;20034;-46
2021/09/07 10:13:45;;;;;;;2.13;1.08;;;29.70;42.30;;;;;;5032850;28;20129;-47
2021/09/07 10:16:25;;;;;;;1.55;1.20;;;29.80;42.40;;;;;;5032105;28;20473;-44
2021/09/07 10:18:53;;;;;;;1.27;1.17;;;29.80;42.30;;;;;;5045839;28;20049;-45
2021/09/07 10:24:50;;;;;;;1.85;1.75;;;29.80;42.20;;;;;;4990523;28;20045;-48
2021/09/07 10:27:17;;;;;;;2.65;0.93;;;29.80;42.10;;;;;;4990470;28;20046;-52
2021/09/07 10:29:46;;;;;;;2.53;1.45;;;29.80;42.10;;;;;;4990343;28;20054;-44
2021/09/07 10:32:24;;;;;;;1.83;1.73;;;29.80;42.00;;;;;;4984770;28;20129;-45
2021/09/07 10:35:16;;;;;;;1.33;0.93;;;29.90;42.00;;;;;;4989965;28;20085;-43
2021/09/07 10:38:08;;;;;;;1.38;1.25;;;29.90;41.90;;;;;;4969331;28;20109;-47
2021/09/07 10:40:43;;;;;;;1.10;1.10;;;29.90;41.90;;;;;;4989654;28;20446;-49
2021/09/07 10:43:11;;;;;;;1.23;0.60;;;29.90;42.40;;;;;;4990227;28;20045;-48
2021/09/07 10:45:40;;;;;;;1.17;1.08;;;29.90;41.80;;;;;;4987501;28;20054;-44
2021/09/07 10:48:33;;;;;;;1.63;1.02;;;29.90;41.70;;;;;;4989779;28;20078;-43
2021/09/07 10:51:03;;;;;;;0.80;0.63;;;30.00;41.70;;;;;;4989685;28;20553;-45
2021/09/07 10:53:30;;;;;;;2.60;1.58;;;29.90;41.60;;;;;;4987387;28;20042;-42
2021/09/07 10:56:26;;;;;;;1.52;1.42;;;30.00;42.30;;;;;;4989626;28;20046;-46
2021/09/07 10:58:53;;;;;;;3.50;0.85;;;30.00;41.60;;;;;;4989668;28;20078;-44
2021/09/07 11:01:32;;;;;;;1.13;1.13;;;30.00;41.60;;;;;;5001003;28;20056;-50
2021/09/07 11:04:31;;;;;;;2.17;2.05;;;30.00;41.60;;;;;;5031177;28;20133;-48
2021/09/07 11:06:58;;;;;;;1.85;1.35;;;30.00;41.50;;;;;;5045178;28;20441;-46
2021/09/07 11:09:54;;;;;;;1.52;1.42;;;30.00;41.50;;;;;;5030739;28;20045;-47
2021/09/07 11:12:26;;;;;;;1.98;1.10;;;30.00;41.40;;;;;;5034181;28;20042;-44
2021/09/07 11:15:06;;;;;;;1.67;1.55;;;30.00;41.40;;;;;;5037815;28;20068;-46
2021/09/07 11:17:35;;;;;;;1.48;1.27;;;30.10;41.50;;;;;;5036440;28;20098;-45
2021/09/07 11:20:04;;;;;;;1.42;1.30;;;30.10;41.40;;;;;;5031196;28;20069;-45
2021/09/07 11:22:32;;;;;;;1.30;1.20;;;30.10;41.40;;;;;;5031361;28;20155;-48
2021/09/07 11:25:07;;;;;;;3.40;0.95;;;30.10;41.30;;;;;;5029454;28;20037;-47
2021/09/07 11:27:51;;;;;;;;;;;30.10;41.30;;;;;;5042357;28;20471;-45
2021/09/07 11:30:31;;;;;;;1.88;1.23;;;30.10;41.40;;;;;;5033961;28;19928;-50
2021/09/07 11:33:06;;;;;;;1.58;1.48;;;30.10;41.40;;;;;;5031554;28;20092;-48
2021/09/07 11:35:36;;;;;;;0.75;0.55;;;30.10;41.40;;;;;;5031161;28;20046;-47
2021/09/07 11:38:04;;;;;;;1.67;1.17;;;30.10;41.30;;;;;;5030150;28;20044;-47
2021/09/07 11:40:32;;;;;;;2.38;1.38;;;30.10;41.30;;;;;;5029465;28;20584;-43
2021/09/07 11:43:01;;;;;;;1.63;1.63;;;30.10;41.30;;;;;;5031360;28;20037;-44
2021/09/07 11:45:31;;;;;;;1.27;1.17;;;30.10;41.20;;;;;;5041123;28;20112;-45
2021/09/07 11:47:59;;;;;;;1.50;1.27;;;30.20;41.20;;;;;;5031892;28;20048;-42
2021/09/07 11:50:30;;;;;;;2.10;1.10;;;30.20;41.20;;;;;;5031313;28;20044;-49
2021/09/07 11:52:59;;;;;;;0.90;0.90;;;30.20;41.10;;;;;;5031149;28;20091;-47
2021/09/07 11:55:54;;;;;;;1.52;1.42;;;30.20;41.20;;;;;;5031253;28;20037;-47
2021/09/07 11:58:26;;;;;;;1.00;1.00;;;30.30;41.10;;;;;;5027193;28;20124;-48
2021/09/07 12:01:01;;;;;;;1.10;1.10;;;30.30;41.20;;;;;;5027345;28;20055;-47
2021/09/07 12:03:36;;;;;;;3.30;1.17;;;30.30;41.10;;;;;;5032677;28;20156;-46
2021/09/07 12:06:06;;;;;;;2.33;1.35;;;30.30;41.10;;;;;;5030422;28;20072;-42
2021/09/07 12:08:35;;;;;;;1.58;1.48;;;30.30;41.00;;;;;;5030586;28;20089;-44
2021/09/07 12:11:02;;;;;;;1.50;1.40;;;30.30;41.00;;;;;;5030845;28;20038;-42
2021/09/07 12:13:30;;;;;;;1.20;1.20;;;30.30;41.00;;;;;;5030821;28;20040;-43
2021/09/07 12:15:57;;;;;;;3.75;1.30;;;30.30;41.00;;;;;;5028317;28;20662;-40
2021/09/07 12:18:33;;;;;;;1.25;1.25;;;30.30;40.90;;;;;;5030542;28;20061;-42
2021/09/07 12:21:12;;;;;;;1.00;1.00;;;30.30;40.90;;;;;;5030362;28;20049;-42
2021/09/07 12:23:42;;;;;;;0.90;0.65;;;30.30;40.80;;;;;;5030831;28;20044;-46
2021/09/07 12:26:10;;;;;;;1.35;1.23;;;30.30;40.70;;;;;;5031260;28;20108;-41
2021/09/07 12:28:39;;;;;;;1.05;1.05;;;30.30;40.70;;;;;;5030990;28;20160;-46
2021/09/07 12:31:17;;;;;;;1.35;0.82;;;30.30;40.70;;;;;;5029147;28;20056;-46
2021/09/07 12:33:48;;;;;;;1.38;1.33;;;30.40;40.70;;;;;;5039391;28;20104;-43
2021/09/07 12:36:18;;;;;;;0.98;0.77;;;30.40;40.70;;;;;;5030530;28;20464;-46
2021/09/07 12:38:46;;;;;;;0.88;0.88;;;30.40;40.60;;;;;;5030749;28;20611;-43
2021/09/07 12:41:16;;;;;;;1.27;1.25;;;30.40;40.60;;;;;;5030797;28;20120;-49
2021/09/07 12:43:46;;;;;;;1.38;1.13;;;30.40;40.60;;;;;;5041687;28;20116;-48
2021/09/07 12:46:16;;;;;;;1.77;1.63;;;30.40;40.50;;;;;;5030168;28;20499;-41
2021/09/07 12:48:45;;;;;;;1.00;0.88;;;30.40;40.60;;;;;;5032625;28;20038;-41
2021/09/07 12:51:14;;;;;;;1.90;0.90;;;30.40;40.50;;;;;;5033904;28;20045;-46
2021/09/07 12:53:44;;;;;;;1.15;1.13;;;30.40;40.40;;;;;;5039297;28;20486;-45
2021/09/07 12:56:12;;;;;;;1.38;1.27;;;30.40;40.40;;;;;;5043240;28;20049;-46
2021/09/07 12:58:41;;;;;;;1.13;0.77;;;30.50;40.50;;;;;;5034354;28;20528;-42
2021/09/07 13:01:09;;;;;;;0.82;0.82;;;30.50;40.40;;;;;;5047004;28;20041;-46